sensor_id;sensor_type;location;lat;lon;timestamp;P1;durP1;ratioP1;P2;durP2;ratioP2
21665;SDS011;10994;45.486;9.190;2024-03-29T00:02:10;4.87;;;4.20;;
21665;SDS011;10994;45.486;9.190;2024-03-29T00:04:42;6.70;;;3.97;;
21665;SDS011;10994;45.486;9.190;2024-03-29T00:07:08;4.67;;;4.10;;
21665;SDS011;10994;45.486;9.190;2024-03-29T00:09:44;4.17;;;3.73;;
21665;SDS011;10994;45.486;9.190;2024-03-29T00:12:13;6.73;;;3.87;;
21665;SDS011;10994;45.486;9.190;2024-03-29T00:14:39;4.30;;;3.90;;
21665;SDS011;10994;45.486;9.190;2024-03-29T00:17:08;5.77;;;3.97;;
21665;SDS011;10994;45.486;9.190;2024-03-29T00:19:34;4.37;;;3.97;;
21665;SDS011;10994;45.486;9.190;2024-03-29T00:22:00;6.87;;;3.77;;
21665;SDS011;10994;45.486;9.190;2024-03-29T00:24:33;5.07;;;3.83;;
21665;SDS011;10994;45.486;9.190;2024-03-29T00:26:59;4.90;;;3.50;;
21665;SDS011;10994;45.486;9.190;2024-03-29T00:29:25;4.83;;;3.63;;
21665;SDS011;10994;45.486;9.190;2024-03-29T00:31:54;6.60;;;3.80;;
21665;SDS011;10994;45.486;9.190;2024-03-29T00:34:20;5.07;;;4.20;;
21665;SDS011;10994;45.486;9.190;2024-03-29T00:36:47;5.40;;;4.00;;
21665;SDS011;10994;45.486;9.190;2024-03-29T00:39:15;5.27;;;4.40;;
21665;SDS011;10994;45.486;9.190;2024-03-29T00:41:49;6.07;;;4.10;;
21665;SDS011;10994;45.486;9.190;2024-03-29T00:44:22;5.17;;;4.23;;
21665;SDS011;10994;45.486;9.190;2024-03-29T00:46:53;4.40;;;4.00;;
21665;SDS011;10994;45.486;9.190;2024-03-29T00:49:18;4.00;;;3.37;;
21665;SDS011;10994;45.486;9.190;2024-03-29T00:51:46;4.50;;;3.70;;
21665;SDS011;10994;45.486;9.190;2024-03-29T00:54:21;4.83;;;4.20;;
21665;SDS011;10994;45.486;9.190;2024-03-29T00:56:49;4.90;;;4.10;;
21665;SDS011;10994;45.486;9.190;2024-03-29T00:59:15;6.33;;;4.03;;
21665;SDS011;10994;45.486;9.190;2024-03-29T01:01:42;4.53;;;4.13;;
21665;SDS011;10994;45.486;9.190;2024-03-29T01:04:18;5.27;;;4.03;;
21665;SDS011;10994;45.486;9.190;2024-03-29T01:06:44;4.10;;;3.80;;
21665;SDS011;10994;45.486;9.190;2024-03-29T01:09:28;5.40;;;4.70;;
21665;SDS011;10994;45.486;9.190;2024-03-29T01:11:54;6.67;;;4.97;;
21665;SDS011;10994;45.486;9.190;2024-03-29T01:14:19;10.50;;;6.50;;
21665;SDS011;10994;45.486;9.190;2024-03-29T01:16:45;7.90;;;5.10;;
21665;SDS011;10994;45.486;9.190;2024-03-29T01:19:11;6.30;;;4.80;;
21665;SDS011;10994;45.486;9.190;2024-03-29T01:21:36;7.00;;;5.10;;
21665;SDS011;10994;45.486;9.190;2024-03-29T01:24:02;6.60;;;5.07;;
21665;SDS011;10994;45.486;9.190;2024-03-29T01:26:29;12.73;;;5.80;;
21665;SDS011;10994;45.486;9.190;2024-03-29T01:28:56;9.40;;;6.03;;
21665;SDS011;10994;45.486;9.190;2024-03-29T01:31:22;6.90;;;5.20;;
21665;SDS011;10994;45.486;9.190;2024-03-29T01:33:49;6.87;;;5.33;;
21665;SDS011;10994;45.486;9.190;2024-03-29T01:36:15;6.40;;;5.77;;
21665;SDS011;10994;45.486;9.190;2024-03-29T01:38:40;7.30;;;5.83;;
21665;SDS011;10994;45.486;9.190;2024-03-29T01:41:07;7.23;;;5.63;;
21665;SDS011;10994;45.486;9.190;2024-03-29T01:43:32;11.47;;;6.13;;
21665;SDS011;10994;45.486;9.190;2024-03-29T01:45:58;7.33;;;5.83;;
21665;SDS011;10994;45.486;9.190;2024-03-29T01:48:24;7.10;;;5.70;;
21665;SDS011;10994;45.486;9.190;2024-03-29T01:50:53;8.90;;;5.90;;
21665;SDS011;10994;45.486;9.190;2024-03-29T01:53:21;6.17;;;5.30;;
21665;SDS011;10994;45.486;9.190;2024-03-29T01:55:47;6.13;;;5.53;;
21665;SDS011;10994;45.486;9.190;2024-03-29T01:58:13;7.17;;;5.57;;
21665;SDS011;10994;45.486;9.190;2024-03-29T02:00:41;6.40;;;5.80;;
21665;SDS011;10994;45.486;9.190;2024-03-29T02:03:15;7.33;;;5.67;;
21665;SDS011;10994;45.486;9.190;2024-03-29T02:05:42;7.10;;;5.27;;
21665;SDS011;10994;45.486;9.190;2024-03-29T02:08:08;8.53;;;5.87;;
21665;SDS011;10994;45.486;9.190;2024-03-29T02:10:36;6.70;;;5.17;;
21665;SDS011;10994;45.486;9.190;2024-03-29T02:13:02;5.30;;;4.70;;
21665;SDS011;10994;45.486;9.190;2024-03-29T02:15:28;6.97;;;6.13;;
21665;SDS011;10994;45.486;9.190;2024-03-29T02:17:54;6.40;;;5.47;;
21665;SDS011;10994;45.486;9.190;2024-03-29T02:20:20;6.93;;;5.37;;
21665;SDS011;10994;45.486;9.190;2024-03-29T02:22:51;7.37;;;5.07;;
21665;SDS011;10994;45.486;9.190;2024-03-29T02:25:20;5.83;;;4.97;;
21665;SDS011;10994;45.486;9.190;2024-03-29T02:27:46;7.20;;;6.10;;
21665;SDS011;10994;45.486;9.190;2024-03-29T02:30:16;7.07;;;5.43;;
21665;SDS011;10994;45.486;9.190;2024-03-29T02:32:42;8.57;;;5.00;;
21665;SDS011;10994;45.486;9.190;2024-03-29T02:35:07;7.17;;;5.53;;
21665;SDS011;10994;45.486;9.190;2024-03-29T02:37:34;5.53;;;4.87;;
21665;SDS011;10994;45.486;9.190;2024-03-29T02:40:01;6.40;;;5.73;;
21665;SDS011;10994;45.486;9.190;2024-03-29T02:42:27;7.53;;;5.20;;
21665;SDS011;10994;45.486;9.190;2024-03-29T02:44:52;7.17;;;5.13;;
21665;SDS011;10994;45.486;9.190;2024-03-29T02:47:18;7.03;;;5.90;;
21665;SDS011;10994;45.486;9.190;2024-03-29T02:49:43;7.03;;;5.53;;
21665;SDS011;10994;45.486;9.190;2024-03-29T02:52:09;7.20;;;5.47;;
21665;SDS011;10994;45.486;9.190;2024-03-29T02:54:34;6.37;;;5.40;;
21665;SDS011;10994;45.486;9.190;2024-03-29T02:57:00;6.53;;;5.87;;
21665;SDS011;10994;45.486;9.190;2024-03-29T02:59:26;7.37;;;5.50;;
21665;SDS011;10994;45.486;9.190;2024-03-29T03:01:51;13.80;;;6.03;;
21665;SDS011;10994;45.486;9.190;2024-03-29T03:04:17;8.40;;;5.43;;
21665;SDS011;10994;45.486;9.190;2024-03-29T03:06:43;5.90;;;5.03;;
21665;SDS011;10994;45.486;9.190;2024-03-29T03:09:08;7.00;;;5.27;;
21665;SDS011;10994;45.486;9.190;2024-03-29T03:11:52;6.73;;;5.47;;
21665;SDS011;10994;45.486;9.190;2024-03-29T03:14:18;7.70;;;5.83;;
21665;SDS011;10994;45.486;9.190;2024-03-29T03:16:43;7.33;;;6.00;;
21665;SDS011;10994;45.486;9.190;2024-03-29T03:19:09;6.13;;;5.50;;
21665;SDS011;10994;45.486;9.190;2024-03-29T03:21:35;7.83;;;5.60;;
21665;SDS011;10994;45.486;9.190;2024-03-29T03:24:00;7.17;;;5.97;;
21665;SDS011;10994;45.486;9.190;2024-03-29T03:26:29;7.97;;;5.30;;
21665;SDS011;10994;45.486;9.190;2024-03-29T03:29:06;6.57;;;4.93;;
21665;SDS011;10994;45.486;9.190;2024-03-29T03:31:46;6.83;;;5.60;;
21665;SDS011;10994;45.486;9.190;2024-03-29T03:34:12;7.50;;;6.37;;
21665;SDS011;10994;45.486;9.190;2024-03-29T03:36:40;6.77;;;5.37;;
21665;SDS011;10994;45.486;9.190;2024-03-29T03:39:06;8.37;;;6.20;;
21665;SDS011;10994;45.486;9.190;2024-03-29T03:41:31;5.43;;;4.93;;
21665;SDS011;10994;45.486;9.190;2024-03-29T03:43:57;6.63;;;5.77;;
21665;SDS011;10994;45.486;9.190;2024-03-29T03:46:22;6.83;;;6.00;;
21665;SDS011;10994;45.486;9.190;2024-03-29T03:48:48;7.53;;;5.43;;
21665;SDS011;10994;45.486;9.190;2024-03-29T03:51:14;7.67;;;5.60;;
21665;SDS011;10994;45.486;9.190;2024-03-29T03:53:39;6.23;;;5.50;;
21665;SDS011;10994;45.486;9.190;2024-03-29T03:56:05;7.47;;;6.37;;
21665;SDS011;10994;45.486;9.190;2024-03-29T03:58:31;7.33;;;5.70;;
21665;SDS011;10994;45.486;9.190;2024-03-29T04:00:56;6.83;;;5.83;;
21665;SDS011;10994;45.486;9.190;2024-03-29T04:03:22;6.63;;;5.63;;
21665;SDS011;10994;45.486;9.190;2024-03-29T04:05:47;8.33;;;6.03;;
21665;SDS011;10994;45.486;9.190;2024-03-29T04:08:13;6.53;;;5.90;;
21665;SDS011;10994;45.486;9.190;2024-03-29T04:10:40;6.47;;;5.73;;
21665;SDS011;10994;45.486;9.190;2024-03-29T04:13:06;8.10;;;6.10;;
21665;SDS011;10994;45.486;9.190;2024-03-29T04:15:31;8.17;;;6.40;;
21665;SDS011;10994;45.486;9.190;2024-03-29T04:17:58;7.10;;;6.40;;
21665;SDS011;10994;45.486;9.190;2024-03-29T04:20:24;7.07;;;6.33;;
21665;SDS011;10994;45.486;9.190;2024-03-29T04:22:50;6.60;;;6.00;;
21665;SDS011;10994;45.486;9.190;2024-03-29T04:25:16;6.67;;;6.07;;
21665;SDS011;10994;45.486;9.190;2024-03-29T04:27:41;6.33;;;5.73;;
21665;SDS011;10994;45.486;9.190;2024-03-29T04:30:07;6.97;;;6.37;;
21665;SDS011;10994;45.486;9.190;2024-03-29T04:32:33;7.87;;;6.63;;
21665;SDS011;10994;45.486;9.190;2024-03-29T04:34:58;7.60;;;6.80;;
21665;SDS011;10994;45.486;9.190;2024-03-29T04:37:24;6.37;;;5.77;;
21665;SDS011;10994;45.486;9.190;2024-03-29T04:39:50;8.50;;;6.47;;
21665;SDS011;10994;45.486;9.190;2024-03-29T04:42:15;10.00;;;7.20;;
21665;SDS011;10994;45.486;9.190;2024-03-29T04:44:41;9.43;;;6.33;;
21665;SDS011;10994;45.486;9.190;2024-03-29T04:47:07;10.67;;;6.83;;
21665;SDS011;10994;45.486;9.190;2024-03-29T04:49:33;6.70;;;6.07;;
21665;SDS011;10994;45.486;9.190;2024-03-29T04:52:00;7.53;;;6.73;;
21665;SDS011;10994;45.486;9.190;2024-03-29T04:54:26;7.10;;;6.40;;
21665;SDS011;10994;45.486;9.190;2024-03-29T04:56:52;6.83;;;6.00;;
21665;SDS011;10994;45.486;9.190;2024-03-29T04:59:18;7.20;;;6.43;;
21665;SDS011;10994;45.486;9.190;2024-03-29T05:01:46;7.00;;;6.13;;
21665;SDS011;10994;45.486;9.190;2024-03-29T05:04:20;6.97;;;6.27;;
21665;SDS011;10994;45.486;9.190;2024-03-29T05:06:55;7.73;;;6.43;;
21665;SDS011;10994;45.486;9.190;2024-03-29T05:09:22;9.33;;;6.97;;
21665;SDS011;10994;45.486;9.190;2024-03-29T05:11:49;11.03;;;6.13;;
21665;SDS011;10994;45.486;9.190;2024-03-29T05:14:15;6.30;;;5.70;;
21665;SDS011;10994;45.486;9.190;2024-03-29T05:16:45;6.13;;;5.53;;
21665;SDS011;10994;45.486;9.190;2024-03-29T05:19:11;5.93;;;4.50;;
21665;SDS011;10994;45.486;9.190;2024-03-29T05:21:38;5.80;;;5.20;;
21665;SDS011;10994;45.486;9.190;2024-03-29T05:24:03;7.63;;;5.73;;
21665;SDS011;10994;45.486;9.190;2024-03-29T05:26:29;6.93;;;5.87;;
21665;SDS011;10994;45.486;9.190;2024-03-29T05:28:56;4.70;;;4.30;;
21665;SDS011;10994;45.486;9.190;2024-03-29T05:31:23;5.63;;;4.97;;
21665;SDS011;10994;45.486;9.190;2024-03-29T05:33:49;8.60;;;5.00;;
21665;SDS011;10994;45.486;9.190;2024-03-29T05:36:15;6.53;;;5.50;;
21665;SDS011;10994;45.486;9.190;2024-03-29T05:38:41;7.10;;;4.70;;
21665;SDS011;10994;45.486;9.190;2024-03-29T05:41:07;5.23;;;4.70;;
21665;SDS011;10994;45.486;9.190;2024-03-29T05:43:32;7.67;;;4.67;;
21665;SDS011;10994;45.486;9.190;2024-03-29T05:45:58;6.17;;;4.77;;
21665;SDS011;10994;45.486;9.190;2024-03-29T05:48:26;6.17;;;5.57;;
21665;SDS011;10994;45.486;9.190;2024-03-29T05:50:52;6.53;;;5.50;;
21665;SDS011;10994;45.486;9.190;2024-03-29T05:53:18;6.63;;;5.30;;
21665;SDS011;10994;45.486;9.190;2024-03-29T05:55:43;9.03;;;5.73;;
21665;SDS011;10994;45.486;9.190;2024-03-29T05:58:09;7.40;;;6.43;;
21665;SDS011;10994;45.486;9.190;2024-03-29T06:00:35;8.17;;;6.40;;
21665;SDS011;10994;45.486;9.190;2024-03-29T06:03:01;6.53;;;5.77;;
21665;SDS011;10994;45.486;9.190;2024-03-29T06:05:30;8.50;;;6.17;;
21665;SDS011;10994;45.486;9.190;2024-03-29T06:07:55;8.57;;;7.10;;
21665;SDS011;10994;45.486;9.190;2024-03-29T06:10:23;10.07;;;7.13;;
21665;SDS011;10994;45.486;9.190;2024-03-29T06:12:48;9.13;;;8.20;;
21665;SDS011;10994;45.486;9.190;2024-03-29T06:15:14;9.27;;;8.07;;
21665;SDS011;10994;45.486;9.190;2024-03-29T06:17:58;9.73;;;8.70;;
21665;SDS011;10994;45.486;9.190;2024-03-29T06:20:24;10.03;;;8.13;;
21665;SDS011;10994;45.486;9.190;2024-03-29T06:22:50;10.80;;;9.00;;
21665;SDS011;10994;45.486;9.190;2024-03-29T06:25:15;10.37;;;8.77;;
21665;SDS011;10994;45.486;9.190;2024-03-29T06:27:42;11.90;;;9.77;;
21665;SDS011;10994;45.486;9.190;2024-03-29T06:30:13;11.60;;;9.00;;
21665;SDS011;10994;45.486;9.190;2024-03-29T06:32:39;10.97;;;9.20;;
21665;SDS011;10994;45.486;9.190;2024-03-29T06:35:05;11.27;;;9.13;;
21665;SDS011;10994;45.486;9.190;2024-03-29T06:37:31;11.60;;;9.13;;
21665;SDS011;10994;45.486;9.190;2024-03-29T06:39:57;9.93;;;8.90;;
21665;SDS011;10994;45.486;9.190;2024-03-29T06:42:23;11.93;;;10.73;;
21665;SDS011;10994;45.486;9.190;2024-03-29T06:44:48;12.70;;;10.63;;
21665;SDS011;10994;45.486;9.190;2024-03-29T06:47:14;13.70;;;11.60;;
21665;SDS011;10994;45.486;9.190;2024-03-29T06:49:40;14.63;;;11.83;;
21665;SDS011;10994;45.486;9.190;2024-03-29T06:52:06;13.67;;;12.23;;
21665;SDS011;10994;45.486;9.190;2024-03-29T06:54:32;16.13;;;11.97;;
21665;SDS011;10994;45.486;9.190;2024-03-29T06:56:58;15.87;;;13.73;;
21665;SDS011;10994;45.486;9.190;2024-03-29T06:59:24;17.13;;;13.53;;
21665;SDS011;10994;45.486;9.190;2024-03-29T07:01:50;16.13;;;13.97;;
21665;SDS011;10994;45.486;9.190;2024-03-29T07:04:20;17.00;;;13.97;;
21665;SDS011;10994;45.486;9.190;2024-03-29T07:06:50;17.97;;;14.50;;
21665;SDS011;10994;45.486;9.190;2024-03-29T07:09:21;15.77;;;14.07;;
21665;SDS011;10994;45.486;9.190;2024-03-29T07:11:49;21.13;;;16.33;;
21665;SDS011;10994;45.486;9.190;2024-03-29T07:14:18;16.40;;;13.87;;
21665;SDS011;10994;45.486;9.190;2024-03-29T07:16:44;18.90;;;15.30;;
21665;SDS011;10994;45.486;9.190;2024-03-29T07:19:11;16.03;;;14.33;;
21665;SDS011;10994;45.486;9.190;2024-03-29T07:21:41;18.33;;;14.57;;
21665;SDS011;10994;45.486;9.190;2024-03-29T07:24:11;18.83;;;14.90;;
21665;SDS011;10994;45.486;9.190;2024-03-29T07:26:37;16.97;;;14.07;;
21665;SDS011;10994;45.486;9.190;2024-03-29T07:29:04;20.30;;;15.87;;
21665;SDS011;10994;45.486;9.190;2024-03-29T07:31:32;20.70;;;16.37;;
21665;SDS011;10994;45.486;9.190;2024-03-29T07:33:59;19.97;;;16.27;;
21665;SDS011;10994;45.486;9.190;2024-03-29T07:36:25;20.87;;;16.57;;
21665;SDS011;10994;45.486;9.190;2024-03-29T07:38:56;21.87;;;16.93;;
21665;SDS011;10994;45.486;9.190;2024-03-29T07:41:22;18.37;;;15.13;;
21665;SDS011;10994;45.486;9.190;2024-03-29T07:43:51;18.13;;;14.77;;
21665;SDS011;10994;45.486;9.190;2024-03-29T07:46:21;21.07;;;15.37;;
21665;SDS011;10994;45.486;9.190;2024-03-29T07:48:48;18.83;;;15.27;;
21665;SDS011;10994;45.486;9.190;2024-03-29T07:51:14;17.80;;;15.07;;
21665;SDS011;10994;45.486;9.190;2024-03-29T07:53:40;16.23;;;14.00;;
21665;SDS011;10994;45.486;9.190;2024-03-29T07:56:09;16.40;;;14.57;;
21665;SDS011;10994;45.486;9.190;2024-03-29T07:58:34;17.57;;;15.57;;
21665;SDS011;10994;45.486;9.190;2024-03-29T08:01:00;16.57;;;14.27;;
21665;SDS011;10994;45.486;9.190;2024-03-29T08:03:26;18.90;;;14.93;;
21665;SDS011;10994;45.486;9.190;2024-03-29T08:05:58;17.80;;;14.53;;
21665;SDS011;10994;45.486;9.190;2024-03-29T08:08:30;18.80;;;14.83;;
21665;SDS011;10994;45.486;9.190;2024-03-29T08:10:55;14.77;;;12.73;;
21665;SDS011;10994;45.486;9.190;2024-03-29T08:13:23;16.33;;;13.60;;
21665;SDS011;10994;45.486;9.190;2024-03-29T08:15:57;16.90;;;13.97;;
21665;SDS011;10994;45.486;9.190;2024-03-29T08:18:27;21.43;;;14.23;;
21665;SDS011;10994;45.486;9.190;2024-03-29T08:20:53;16.37;;;13.80;;
21665;SDS011;10994;45.486;9.190;2024-03-29T08:23:20;18.77;;;13.77;;
21665;SDS011;10994;45.486;9.190;2024-03-29T08:25:49;16.83;;;13.30;;
21665;SDS011;10994;45.486;9.190;2024-03-29T08:28:17;14.53;;;12.50;;
21665;SDS011;10994;45.486;9.190;2024-03-29T08:30:43;15.60;;;13.13;;
21665;SDS011;10994;45.486;9.190;2024-03-29T08:33:09;17.03;;;13.60;;
21665;SDS011;10994;45.486;9.190;2024-03-29T08:35:34;17.20;;;13.43;;
21665;SDS011;10994;45.486;9.190;2024-03-29T08:38:00;18.60;;;13.70;;
21665;SDS011;10994;45.486;9.190;2024-03-29T08:40:27;15.77;;;12.43;;
21665;SDS011;10994;45.486;9.190;2024-03-29T08:42:54;15.73;;;12.37;;
21665;SDS011;10994;45.486;9.190;2024-03-29T08:45:21;16.23;;;12.93;;
21665;SDS011;10994;45.486;9.190;2024-03-29T08:47:48;14.10;;;11.93;;
21665;SDS011;10994;45.486;9.190;2024-03-29T08:50:14;16.93;;;12.80;;
21665;SDS011;10994;45.486;9.190;2024-03-29T08:52:40;15.67;;;12.40;;
21665;SDS011;10994;45.486;9.190;2024-03-29T08:55:06;15.13;;;12.50;;
21665;SDS011;10994;45.486;9.190;2024-03-29T08:57:32;16.57;;;12.63;;
21665;SDS011;10994;45.486;9.190;2024-03-29T08:59:58;15.57;;;12.47;;
21665;SDS011;10994;45.486;9.190;2024-03-29T09:02:33;15.03;;;12.00;;
21665;SDS011;10994;45.486;9.190;2024-03-29T09:04:59;16.87;;;12.30;;
21665;SDS011;10994;45.486;9.190;2024-03-29T09:07:25;14.53;;;12.20;;
21665;SDS011;10994;45.486;9.190;2024-03-29T09:09:50;17.40;;;12.20;;
21665;SDS011;10994;45.486;9.190;2024-03-29T09:12:16;14.33;;;11.20;;
21665;SDS011;10994;45.486;9.190;2024-03-29T09:14:43;11.77;;;10.27;;
21665;SDS011;10994;45.486;9.190;2024-03-29T09:17:10;15.60;;;12.17;;
21665;SDS011;10994;45.486;9.190;2024-03-29T09:19:36;15.17;;;11.43;;
21665;SDS011;10994;45.486;9.190;2024-03-29T09:22:02;14.57;;;12.83;;
21665;SDS011;10994;45.486;9.190;2024-03-29T09:24:28;14.80;;;11.57;;
21665;SDS011;10994;45.486;9.190;2024-03-29T09:26:54;17.07;;;11.50;;
21665;SDS011;10994;45.486;9.190;2024-03-29T09:29:19;15.73;;;11.20;;
21665;SDS011;10994;45.486;9.190;2024-03-29T09:31:46;14.67;;;11.07;;
21665;SDS011;10994;45.486;9.190;2024-03-29T09:34:12;15.37;;;11.33;;
21665;SDS011;10994;45.486;9.190;2024-03-29T09:36:38;13.33;;;11.50;;
21665;SDS011;10994;45.486;9.190;2024-03-29T09:39:03;17.40;;;12.53;;
21665;SDS011;10994;45.486;9.190;2024-03-29T09:41:29;13.90;;;11.33;;
21665;SDS011;10994;45.486;9.190;2024-03-29T09:43:59;13.83;;;10.97;;
21665;SDS011;10994;45.486;9.190;2024-03-29T09:46:28;14.70;;;11.70;;
21665;SDS011;10994;45.486;9.190;2024-03-29T09:48:54;16.30;;;11.83;;
21665;SDS011;10994;45.486;9.190;2024-03-29T09:51:21;15.70;;;12.33;;
21665;SDS011;10994;45.486;9.190;2024-03-29T09:53:47;14.50;;;12.10;;
21665;SDS011;10994;45.486;9.190;2024-03-29T09:56:14;16.30;;;11.50;;
21665;SDS011;10994;45.486;9.190;2024-03-29T09:58:40;16.53;;;11.17;;
21665;SDS011;10994;45.486;9.190;2024-03-29T10:01:06;15.13;;;12.53;;
21665;SDS011;10994;45.486;9.190;2024-03-29T10:03:35;15.43;;;10.50;;
21665;SDS011;10994;45.486;9.190;2024-03-29T10:06:24;13.73;;;11.83;;
21665;SDS011;10994;45.486;9.190;2024-03-29T10:08:50;13.57;;;11.40;;
21665;SDS011;10994;45.486;9.190;2024-03-29T10:11:20;16.60;;;11.77;;
21665;SDS011;10994;45.486;9.190;2024-03-29T10:13:46;14.47;;;11.03;;
21665;SDS011;10994;45.486;9.190;2024-03-29T10:16:12;16.60;;;11.47;;
21665;SDS011;10994;45.486;9.190;2024-03-29T10:18:49;17.23;;;11.20;;
21665;SDS011;10994;45.486;9.190;2024-03-29T10:21:15;17.97;;;12.50;;
21665;SDS011;10994;45.486;9.190;2024-03-29T10:23:41;12.37;;;10.47;;
21665;SDS011;10994;45.486;9.190;2024-03-29T10:26:08;15.83;;;11.43;;
21665;SDS011;10994;45.486;9.190;2024-03-29T10:28:34;15.23;;;11.33;;
21665;SDS011;10994;45.486;9.190;2024-03-29T10:31:02;15.33;;;11.10;;
21665;SDS011;10994;45.486;9.190;2024-03-29T10:33:29;14.90;;;11.80;;
21665;SDS011;10994;45.486;9.190;2024-03-29T10:35:55;14.27;;;11.10;;
21665;SDS011;10994;45.486;9.190;2024-03-29T10:38:24;15.83;;;11.37;;
21665;SDS011;10994;45.486;9.190;2024-03-29T10:40:50;15.77;;;11.63;;
21665;SDS011;10994;45.486;9.190;2024-03-29T10:43:17;17.43;;;12.10;;
21665;SDS011;10994;45.486;9.190;2024-03-29T10:45:45;17.83;;;11.50;;
21665;SDS011;10994;45.486;9.190;2024-03-29T10:48:13;21.07;;;11.80;;
21665;SDS011;10994;45.486;9.190;2024-03-29T10:50:40;17.37;;;11.87;;
21665;SDS011;10994;45.486;9.190;2024-03-29T10:53:08;14.03;;;10.50;;
21665;SDS011;10994;45.486;9.190;2024-03-29T10:55:35;12.90;;;9.10;;
21665;SDS011;10994;45.486;9.190;2024-03-29T10:58:04;10.47;;;8.83;;
21665;SDS011;10994;45.486;9.190;2024-03-29T11:00:33;11.23;;;8.97;;
21665;SDS011;10994;45.486;9.190;2024-03-29T11:05:38;13.50;;;10.00;;
21665;SDS011;10994;45.486;9.190;2024-03-29T11:08:09;17.57;;;10.27;;
21665;SDS011;10994;45.486;9.190;2024-03-29T11:10:36;14.70;;;10.40;;
21665;SDS011;10994;45.486;9.190;2024-03-29T11:13:19;15.90;;;10.40;;
21665;SDS011;10994;45.486;9.190;2024-03-29T11:15:56;13.10;;;9.57;;
21665;SDS011;10994;45.486;9.190;2024-03-29T11:18:25;12.23;;;9.60;;
21665;SDS011;10994;45.486;9.190;2024-03-29T11:20:52;12.60;;;9.07;;
21665;SDS011;10994;45.486;9.190;2024-03-29T11:23:20;12.77;;;9.27;;
21665;SDS011;10994;45.486;9.190;2024-03-29T11:25:50;11.80;;;9.10;;
21665;SDS011;10994;45.486;9.190;2024-03-29T11:28:31;13.20;;;9.47;;
21665;SDS011;10994;45.486;9.190;2024-03-29T11:31:03;12.23;;;9.13;;
21665;SDS011;10994;45.486;9.190;2024-03-29T11:33:43;10.47;;;8.60;;
21665;SDS011;10994;45.486;9.190;2024-03-29T11:36:20;11.60;;;9.63;;
21665;SDS011;10994;45.486;9.190;2024-03-29T11:38:51;13.60;;;9.80;;
21665;SDS011;10994;45.486;9.190;2024-03-29T11:41:22;11.30;;;9.00;;
21665;SDS011;10994;45.486;9.190;2024-03-29T11:43:49;11.13;;;8.90;;
21665;SDS011;10994;45.486;9.190;2024-03-29T11:46:16;12.90;;;9.73;;
21665;SDS011;10994;45.486;9.190;2024-03-29T11:48:42;11.07;;;9.03;;
21665;SDS011;10994;45.486;9.190;2024-03-29T11:51:10;12.87;;;9.37;;
21665;SDS011;10994;45.486;9.190;2024-03-29T11:53:39;12.90;;;9.43;;
21665;SDS011;10994;45.486;9.190;2024-03-29T11:56:06;14.07;;;9.73;;
21665;SDS011;10994;45.486;9.190;2024-03-29T11:58:32;13.33;;;8.87;;
21665;SDS011;10994;45.486;9.190;2024-03-29T12:00:59;14.10;;;9.37;;
21665;SDS011;10994;45.486;9.190;2024-03-29T12:03:25;11.27;;;8.77;;
21665;SDS011;10994;45.486;9.190;2024-03-29T12:05:54;10.37;;;8.77;;
21665;SDS011;10994;45.486;9.190;2024-03-29T12:08:23;11.20;;;9.03;;
21665;SDS011;10994;45.486;9.190;2024-03-29T12:10:50;10.70;;;9.03;;
21665;SDS011;10994;45.486;9.190;2024-03-29T12:13:16;12.23;;;9.20;;
21665;SDS011;10994;45.486;9.190;2024-03-29T12:15:43;10.47;;;9.37;;
21665;SDS011;10994;45.486;9.190;2024-03-29T12:18:09;11.03;;;8.13;;
21665;SDS011;10994;45.486;9.190;2024-03-29T12:20:36;10.47;;;8.73;;
21665;SDS011;10994;45.486;9.190;2024-03-29T12:23:03;12.67;;;8.93;;
21665;SDS011;10994;45.486;9.190;2024-03-29T12:25:33;15.27;;;8.57;;
21665;SDS011;10994;45.486;9.190;2024-03-29T12:28:00;11.07;;;8.27;;
21665;SDS011;10994;45.486;9.190;2024-03-29T12:30:26;12.43;;;10.07;;
21665;SDS011;10994;45.486;9.190;2024-03-29T12:33:08;12.87;;;8.23;;
21665;SDS011;10994;45.486;9.190;2024-03-29T12:35:37;11.67;;;8.83;;
21665;SDS011;10994;45.486;9.190;2024-03-29T12:38:03;14.17;;;9.03;;
21665;SDS011;10994;45.486;9.190;2024-03-29T12:40:32;13.23;;;9.40;;
21665;SDS011;10994;45.486;9.190;2024-03-29T12:43:02;13.07;;;9.47;;
21665;SDS011;10994;45.486;9.190;2024-03-29T12:45:30;11.83;;;9.30;;
21665;SDS011;10994;45.486;9.190;2024-03-29T12:47:56;10.37;;;9.27;;
21665;SDS011;10994;45.486;9.190;2024-03-29T12:50:28;12.77;;;8.97;;
21665;SDS011;10994;45.486;9.190;2024-03-29T12:52:56;13.13;;;8.73;;
21665;SDS011;10994;45.486;9.190;2024-03-29T12:55:27;13.73;;;9.43;;
21665;SDS011;10994;45.486;9.190;2024-03-29T12:57:59;10.63;;;9.27;;
21665;SDS011;10994;45.486;9.190;2024-03-29T13:00:26;17.40;;;9.07;;
21665;SDS011;10994;45.486;9.190;2024-03-29T13:02:54;11.03;;;9.00;;
21665;SDS011;10994;45.486;9.190;2024-03-29T13:05:20;13.20;;;9.57;;
21665;SDS011;10994;45.486;9.190;2024-03-29T13:07:46;11.80;;;8.40;;
21665;SDS011;10994;45.486;9.190;2024-03-29T13:10:12;14.50;;;8.93;;
21665;SDS011;10994;45.486;9.190;2024-03-29T13:12:41;13.07;;;9.00;;
21665;SDS011;10994;45.486;9.190;2024-03-29T13:15:17;12.17;;;9.23;;
21665;SDS011;10994;45.486;9.190;2024-03-29T13:17:50;11.30;;;9.43;;
21665;SDS011;10994;45.486;9.190;2024-03-29T13:20:17;11.07;;;8.80;;
21665;SDS011;10994;45.486;9.190;2024-03-29T13:22:43;11.63;;;10.40;;
21665;SDS011;10994;45.486;9.190;2024-03-29T13:25:11;13.00;;;10.17;;
21665;SDS011;10994;45.486;9.190;2024-03-29T13:27:38;13.13;;;10.10;;
21665;SDS011;10994;45.486;9.190;2024-03-29T13:30:08;15.20;;;9.77;;
21665;SDS011;10994;45.486;9.190;2024-03-29T13:32:35;14.63;;;9.63;;
21665;SDS011;10994;45.486;9.190;2024-03-29T13:35:01;13.10;;;9.97;;
21665;SDS011;10994;45.486;9.190;2024-03-29T13:37:30;12.63;;;8.93;;
21665;SDS011;10994;45.486;9.190;2024-03-29T13:39:58;11.63;;;9.67;;
21665;SDS011;10994;45.486;9.190;2024-03-29T13:42:24;10.53;;;9.07;;
21665;SDS011;10994;45.486;9.190;2024-03-29T13:44:50;14.33;;;10.30;;
21665;SDS011;10994;45.486;9.190;2024-03-29T13:47:17;12.40;;;8.77;;
21665;SDS011;10994;45.486;9.190;2024-03-29T13:49:43;10.10;;;9.10;;
21665;SDS011;10994;45.486;9.190;2024-03-29T13:52:09;13.57;;;8.80;;
21665;SDS011;10994;45.486;9.190;2024-03-29T13:54:35;14.63;;;10.50;;
21665;SDS011;10994;45.486;9.190;2024-03-29T13:57:01;11.53;;;9.17;;
21665;SDS011;10994;45.486;9.190;2024-03-29T13:59:29;10.23;;;8.53;;
21665;SDS011;10994;45.486;9.190;2024-03-29T14:01:55;9.17;;;7.67;;
21665;SDS011;10994;45.486;9.190;2024-03-29T14:04:21;9.47;;;7.90;;
21665;SDS011;10994;45.486;9.190;2024-03-29T14:06:47;8.40;;;7.53;;
21665;SDS011;10994;45.486;9.190;2024-03-29T14:09:13;12.23;;;7.87;;
21665;SDS011;10994;45.486;9.190;2024-03-29T14:11:39;10.90;;;7.57;;
21665;SDS011;10994;45.486;9.190;2024-03-29T14:14:04;9.17;;;8.27;;
21665;SDS011;10994;45.486;9.190;2024-03-29T14:16:33;7.80;;;6.77;;
21665;SDS011;10994;45.486;9.190;2024-03-29T14:18:58;7.87;;;6.73;;
21665;SDS011;10994;45.486;9.190;2024-03-29T14:21:24;8.33;;;5.87;;
21665;SDS011;10994;45.486;9.190;2024-03-29T14:23:50;7.63;;;6.50;;
21665;SDS011;10994;45.486;9.190;2024-03-29T14:26:15;6.70;;;5.33;;
21665;SDS011;10994;45.486;9.190;2024-03-29T14:28:41;7.00;;;5.90;;
21665;SDS011;10994;45.486;9.190;2024-03-29T14:31:06;7.90;;;5.50;;
21665;SDS011;10994;45.486;9.190;2024-03-29T14:33:33;6.50;;;5.63;;
21665;SDS011;10994;45.486;9.190;2024-03-29T14:35:59;10.30;;;6.13;;
21665;SDS011;10994;45.486;9.190;2024-03-29T14:38:24;7.37;;;6.33;;
21665;SDS011;10994;45.486;9.190;2024-03-29T14:40:50;6.43;;;5.73;;